RJOE(METAR)
06/25 08:00
METAR RJOE 242300Z VRB02KT 9999 FEW030 23/14 Q1017 RMK 1CU030 A3004=
戻る
トップページへ戻る
IMOC Co,.Ltd.